createdAt,value
2022-09-03T00:01:15.771Z,100058.59
2022-09-03T00:03:45.083Z,100069.19
2022-09-03T00:06:15.981Z,100065.69
2022-09-03T00:08:45.870Z,100067.56
2022-09-03T00:11:17.634Z,100067.56
2022-09-03T00:13:47.344Z,100071.31
2022-09-03T00:16:18.412Z,100077.78
2022-09-03T00:18:48.694Z,100076.13
2022-09-03T00:21:17.332Z,100085.09
2022-09-03T00:23:45.999Z,100070.72
2022-09-03T00:26:25.726Z,100077.16
2022-09-03T00:28:59.117Z,100070.91
2022-09-03T00:31:33.558Z,100074.66
2022-09-03T00:34:03.814Z,100073.03
2022-09-03T00:36:35.568Z,100078.22
2022-09-03T00:39:03.670Z,100070.91
2022-09-03T00:41:35.149Z,100073.84
2022-09-03T00:44:16.920Z,100071.75
2022-09-03T00:46:48.373Z,100068.22
2022-09-03T00:49:25.904Z,100076.56
2022-09-03T00:51:58.346Z,100078.22
2022-09-03T00:54:30.378Z,100081.75
2022-09-03T00:57:06.211Z,100079.84
2022-09-03T00:59:36.992Z,100093.38
2022-09-03T01:02:11.862Z,100086.94
2022-09-03T01:04:45.558Z,100093.38
2022-09-03T01:07:16.071Z,100101.50
2022-09-03T01:09:49.938Z,100104.22
2022-09-03T01:12:23.073Z,100100.91
2022-09-03T01:14:58.037Z,100100.09
2022-09-03T01:17:34.128Z,100102.78
2022-09-03T01:20:14.451Z,100090.34
2022-09-03T01:22:58.817Z,100096.56
2022-09-03T01:25:33.530Z,100097.59
2022-09-03T01:28:13.608Z,100103.84
2022-09-03T01:30:42.701Z,100101.38
2022-09-03T01:33:13.648Z,100096.78
2022-09-03T01:35:45.402Z,100098.66
2022-09-03T01:38:18.724Z,100095.13
2022-09-03T01:40:50.866Z,100107.59
2022-09-03T01:43:36.863Z,100099.72
2022-09-03T01:46:06.624Z,100098.06
2022-09-03T01:48:46.275Z,100106.78
2022-09-03T01:51:23.627Z,100111.38
2022-09-03T01:54:21.815Z,100112.19
2022-09-03T01:57:24.254Z,100117.81
2022-09-03T02:00:06.789Z,100116.78
2022-09-03T02:02:36.046Z,100120.53
2022-09-03T02:05:08.046Z,100116.78
2022-09-03T02:07:36.977Z,100118.66
2022-09-03T02:10:06.808Z,100113.25
2022-09-03T02:12:35.600Z,100115.13
2022-09-03T02:15:06.616Z,100118.66
2022-09-03T02:17:34.670Z,100118.06
2022-09-03T02:20:05.110Z,100111.84
2022-09-03T02:22:33.285Z,100118.06
2022-09-03T02:25:01.251Z,100114.75
2022-09-03T02:27:29.384Z,100114.75
2022-09-03T02:29:58.164Z,100115.81
2022-09-03T02:32:28.171Z,100112.88
2022-09-03T02:34:56.211Z,100118.53
2022-09-03T02:37:24.354Z,100115.00
2022-09-03T02:39:53.244Z,100112.31
2022-09-03T02:42:21.928Z,100113.13
2022-09-03T02:44:51.582Z,100112.31
2022-09-03T02:47:21.989Z,100106.91
2022-09-03T02:49:51.428Z,100104.41
2022-09-03T02:52:19.485Z,100113.94
2022-09-03T02:54:47.506Z,100109.34
2022-09-03T02:57:17.031Z,100113.13
2022-09-03T02:59:51.827Z,100113.13
2022-09-03T03:02:19.926Z,100108.53
2022-09-03T03:04:47.982Z,100107.72
2022-09-03T03:07:17.453Z,100100.41
2022-09-03T03:09:46.108Z,100107.72
2022-09-03T03:12:17.369Z,100110.16
2022-09-03T03:14:45.379Z,100109.34
2022-09-03T03:17:13.351Z,100107.72
2022-09-03T03:19:41.385Z,100103.34
2022-09-03T03:22:09.422Z,100110.41
2022-09-03T03:24:39.307Z,100109.81
2022-09-03T03:27:10.730Z,100115.22
2022-09-03T03:29:39.620Z,100109.81
2022-09-03T03:32:07.731Z,100114.41
2022-09-03T03:34:35.780Z,100112.75
2022-09-03T03:37:04.648Z,100119.00
2022-09-03T03:39:32.814Z,100118.16
2022-09-03T03:42:02.394Z,100123.56
2022-09-03T03:44:30.753Z,100126.50
2022-09-03T03:46:58.737Z,100125.44
2022-09-03T03:49:26.839Z,100129.22
2022-09-03T03:51:54.877Z,100123.00
2022-09-03T03:54:23.011Z,100126.50
2022-09-03T03:56:55.165Z,100133.56
2022-09-03T03:59:25.213Z,100121.09
2022-09-03T04:01:53.180Z,100124.84
2022-09-03T04:04:21.152Z,100127.34
2022-09-03T04:06:49.271Z,100131.91
2022-09-03T04:09:17.267Z,100122.75
2022-09-03T04:11:45.406Z,100122.75
2022-09-03T04:14:13.457Z,100121.91
2022-09-03T04:16:43.341Z,100118.41
2022-09-03T04:19:14.376Z,100110.28
2022-09-03T04:21:42.371Z,100119.44
2022-09-03T04:24:10.395Z,100117.78
2022-09-03T04:26:38.440Z,100118.63
2022-09-03T04:29:07.071Z,100120.50
2022-09-03T04:31:35.390Z,100118.00
2022-09-03T04:34:06.571Z,100121.56
2022-09-03T04:36:35.136Z,100126.97
2022-09-03T04:39:03.355Z,100123.19
2022-09-03T04:41:32.338Z,100130.25
2022-09-03T04:44:00.686Z,100126.50
2022-09-03T04:46:33.612Z,100120.28
2022-09-03T04:49:02.333Z,100121.09
2022-09-03T04:51:34.650Z,100126.50
2022-09-03T04:54:03.108Z,100123.00
2022-09-03T04:56:32.207Z,100119.44
2022-09-03T04:59:01.342Z,100118.41
2022-09-03T05:01:31.060Z,100124.63
2022-09-03T05:03:59.147Z,100121.91
2022-09-03T05:06:27.397Z,100125.44
2022-09-03T05:08:56.861Z,100128.97
2022-09-03T05:11:25.119Z,100127.94
2022-09-03T05:13:53.836Z,100125.22
2022-09-03T05:16:22.177Z,100126.88
2022-09-03T05:18:52.893Z,100131.47
2022-09-03T05:21:21.035Z,100122.28
2022-09-03T05:23:50.436Z,100120.63
2022-09-03T05:26:20.917Z,100123.13
2022-09-03T05:28:49.059Z,100129.56
2022-09-03T05:31:18.060Z,100131.47
2022-09-03T05:33:47.027Z,100128.75
2022-09-03T05:36:16.344Z,100134.16
2022-09-03T05:38:44.525Z,100139.34
2022-09-03T05:41:14.670Z,100138.50
2022-09-03T05:43:44.140Z,100143.91
2022-09-03T05:46:13.108Z,100138.50
2022-09-03T05:48:41.608Z,100137.69
2022-09-03T05:51:10.152Z,100146.41
2022-09-03T05:53:39.290Z,100152.63
2022-09-03T05:56:09.409Z,100142.88
2022-09-03T05:58:39.402Z,100145.59
2022-09-03T06:01:13.795Z,100146.19
2022-09-03T06:03:42.524Z,100147.00
2022-09-03T06:06:11.059Z,100147.81
2022-09-03T06:08:39.457Z,100153.84
2022-09-03T06:11:07.493Z,100153.00
2022-09-03T06:13:36.107Z,100148.44
2022-09-03T06:16:05.698Z,100153.84
2022-09-03T06:18:35.111Z,100149.00
2022-09-03T06:21:04.210Z,100151.72
2022-09-03T06:23:32.507Z,100142.56
2022-09-03T06:26:05.461Z,100151.50
2022-09-03T06:28:34.982Z,100142.56
2022-09-03T06:31:03.176Z,100150.66
2022-09-03T06:33:32.019Z,100143.38
2022-09-03T06:36:03.915Z,100141.50
2022-09-03T06:38:36.470Z,100144.19
2022-09-03T06:41:05.320Z,100152.91
2022-09-03T06:43:34.006Z,100146.91
2022-09-03T06:46:02.688Z,100153.13
2022-09-03T06:48:32.149Z,100152.09
2022-09-03T06:51:02.369Z,100148.78
2022-09-03T06:53:32.091Z,100158.53
2022-09-03T06:56:01.375Z,100151.28
2022-09-03T06:58:30.266Z,100157.50
2022-09-03T07:01:03.002Z,100155.63
2022-09-03T07:03:31.283Z,100154.59
2022-09-03T07:06:03.201Z,100151.66
2022-09-03T07:08:32.936Z,100152.47
2022-09-03T07:11:01.699Z,100148.75
2022-09-03T07:13:29.690Z,100150.38
2022-09-03T07:16:02.321Z,100154.97
2022-09-03T07:18:30.415Z,100161.19
2022-09-03T07:21:02.624Z,100162.03
2022-09-03T07:23:31.278Z,100162.84
2022-09-03T07:26:00.547Z,100164.72
2022-09-03T07:28:28.711Z,100168.25
2022-09-03T07:30:57.764Z,100175.34
2022-09-03T07:33:25.785Z,100174.47
2022-09-03T07:35:54.140Z,100178.84
2022-09-03T07:38:24.349Z,100182.38
2022-09-03T07:40:59.216Z,100170.50
2022-09-03T07:43:28.013Z,100173.44
2022-09-03T07:45:57.393Z,100184.88
2022-09-03T07:48:25.651Z,100179.47
2022-09-03T07:50:54.610Z,100179.47
2022-09-03T07:53:24.976Z,100186.50
2022-09-03T07:55:53.017Z,100182.16
2022-09-03T07:58:23.095Z,100184.88
2022-09-03T08:00:51.180Z,100187.34
2022-09-03T08:03:19.232Z,100190.28
2022-09-03T08:05:47.295Z,100190.03
2022-09-03T08:08:15.646Z,100190.84
2022-09-03T08:10:45.885Z,100183.59
2022-09-03T08:13:13.885Z,100189.00
2022-09-03T08:15:43.019Z,100181.69
2022-09-03T08:18:11.333Z,100185.22
2022-09-03T08:20:40.344Z,100184.16
2022-09-03T08:23:08.689Z,100192.28
2022-09-03T08:25:36.665Z,100186.88
2022-09-03T08:28:06.181Z,100192.28
2022-09-03T08:30:34.965Z,100185.00
2022-09-03T08:33:04.948Z,100184.75
2022-09-03T08:35:34.698Z,100182.06
2022-09-03T08:38:05.792Z,100190.16
2022-09-03T08:40:38.443Z,100185.59
2022-09-03T08:43:10.792Z,100178.31
2022-09-03T08:45:39.433Z,100186.19
2022-09-03T08:48:09.521Z,100184.28
2022-09-03T08:50:39.764Z,100187.00
2022-09-03T08:53:11.504Z,100184.28
2022-09-03T08:55:44.722Z,100190.31
2022-09-03T08:58:15.541Z,100193.03
2022-09-03T09:00:48.470Z,100192.19
2022-09-03T09:03:34.921Z,100184.06
2022-09-03T09:06:09.200Z,100190.56
2022-09-03T09:08:40.194Z,100191.38
2022-09-03T09:11:10.297Z,100187.59
2022-09-03T09:13:44.342Z,100194.66
2022-09-03T09:16:15.131Z,100192.81
2022-09-03T09:18:49.596Z,100202.56
2022-09-03T09:21:22.005Z,100200.66
2022-09-03T09:23:52.072Z,100193.38
2022-09-03T09:26:21.511Z,100192.56
2022-09-03T09:28:53.951Z,100198.78
2022-09-03T09:31:21.994Z,100200.44
2022-09-03T09:33:52.517Z,100205.25
2022-09-03T09:36:20.556Z,100198.78
2022-09-03T09:38:49.772Z,100207.16
2022-09-03T09:41:19.452Z,100201.75
2022-09-03T09:43:49.047Z,100210.06
2022-09-03T09:46:22.815Z,100206.34
2022-09-03T09:48:52.292Z,100210.06
2022-09-03T09:51:21.563Z,100218.19
2022-09-03T09:53:49.846Z,100214.44
2022-09-03T09:56:24.400Z,100208.19
2022-09-03T09:58:54.366Z,100212.56
2022-09-03T10:01:25.881Z,100204.19
2022-09-03T10:03:57.485Z,100209.63
2022-09-03T10:06:43.084Z,100208.78
2022-09-03T10:09:12.581Z,100214.19
2022-09-03T10:11:42.711Z,100208.78
2022-09-03T10:14:14.933Z,100208.78
2022-09-03T10:16:49.035Z,100203.16
2022-09-03T10:19:20.738Z,100203.97
2022-09-03T10:21:52.221Z,100198.56
2022-09-03T10:24:39.528Z,100202.91
2022-09-03T10:27:10.453Z,100201.88
2022-09-03T10:29:40.813Z,100195.41
2022-09-03T10:32:23.066Z,100199.16
2022-09-03T10:34:58.852Z,100203.16
2022-09-03T10:37:30.643Z,100206.09
2022-09-03T10:40:06.553Z,100197.16
2022-09-03T10:42:39.893Z,100206.47
2022-09-03T10:45:13.945Z,100195.88
2022-09-03T10:48:04.353Z,100204.59
2022-09-03T10:50:34.684Z,100199.16
2022-09-03T10:53:08.894Z,100209.75
2022-09-03T10:55:45.256Z,100204.34
2022-09-03T10:58:24.758Z,100204.34
2022-09-03T11:00:56.292Z,100199.16
2022-09-03T11:03:45.095Z,100200.00
2022-09-03T11:06:14.661Z,100197.28
2022-09-03T11:08:44.357Z,100193.75
2022-09-03T11:11:15.241Z,100197.28
2022-09-03T11:13:46.170Z,100198.69
2022-09-03T11:16:18.067Z,100191.41
2022-09-03T11:18:50.073Z,100202.00
2022-09-03T11:21:19.535Z,100198.22
2022-09-03T11:23:49.029Z,100193.63
2022-09-03T11:26:26.365Z,100194.50
2022-09-03T11:28:57.629Z,100198.22
2022-09-03T11:31:31.627Z,100193.41
2022-09-03T11:34:02.901Z,100189.91
2022-09-03T11:36:32.717Z,100187.41
2022-09-03T11:39:01.589Z,100187.41
2022-09-03T11:41:30.068Z,100185.75
2022-09-03T11:44:02.487Z,100189.50
2022-09-03T11:46:33.287Z,100191.19
2022-09-03T11:49:13.488Z,100184.94
2022-09-03T11:51:42.035Z,100182.00
2022-09-03T11:54:26.085Z,100182.81
2022-09-03T11:57:06.907Z,100189.28
2022-09-03T11:59:34.922Z,100182.00
2022-09-03T12:02:05.708Z,100182.00
2022-09-03T12:04:37.055Z,100174.94
2022-09-03T12:07:27.493Z,100169.28
2022-09-03T12:10:01.931Z,100172.84
2022-09-03T12:12:41.974Z,100172.84
2022-09-03T12:15:14.373Z,100173.88
2022-09-03T12:17:45.834Z,100174.69
2022-09-03T12:20:15.875Z,100176.56
2022-09-03T12:22:43.982Z,100171.16
2022-09-03T12:25:13.360Z,100169.06
2022-09-03T12:27:41.565Z,100166.34
2022-09-03T12:30:17.599Z,100163.63
2022-09-03T12:32:47.611Z,100164.47
2022-09-03T12:38:09.375Z,100163.38
2022-09-03T12:43:50.070Z,100156.34
2022-09-03T12:46:18.512Z,100147.41
2022-09-03T12:51:51.207Z,100150.09
2022-09-03T12:54:21.005Z,100145.75
2022-09-03T12:56:54.539Z,100138.69
2022-09-03T12:59:22.626Z,100141.97
2022-09-03T13:01:52.224Z,100134.94
2022-09-03T13:04:21.365Z,100142.19
2022-09-03T13:06:56.285Z,100141.97
2022-09-03T13:09:25.026Z,100136.56
2022-09-03T13:11:55.619Z,100139.28
2022-09-03T13:14:24.831Z,100137.38
2022-09-03T13:17:28.400Z,100138.22
2022-09-03T13:20:13.509Z,100132.78
2022-09-03T13:22:47.401Z,100131.16
2022-09-03T13:25:17.517Z,100136.56
2022-09-03T13:27:47.614Z,100138.22
2022-09-03T13:30:17.311Z,100131.16
2022-09-03T13:32:54.642Z,100130.91
2022-09-03T13:35:28.340Z,100123.03
2022-09-03T13:38:00.045Z,100124.66
2022-09-03T13:40:33.378Z,100125.75
2022-09-03T13:43:06.538Z,100130.34
2022-09-03T13:45:39.394Z,100117.03
2022-09-03T13:48:30.344Z,100115.97
2022-09-03T13:51:03.996Z,100107.84
2022-09-03T13:53:41.333Z,100121.63
2022-09-03T13:56:17.819Z,100117.03
2022-09-03T13:58:48.222Z,100121.63
2022-09-03T14:01:20.438Z,100122.44
2022-09-03T14:03:50.942Z,100123.25
2022-09-03T14:06:26.504Z,100120.78
2022-09-03T14:09:03.465Z,100122.44
2022-09-03T14:11:32.794Z,100129.50
2022-09-03T14:14:10.760Z,100128.44
2022-09-03T14:16:40.736Z,100124.91
2022-09-03T14:19:12.446Z,100123.03
2022-09-03T14:21:42.508Z,100130.09
2022-09-03T14:24:16.452Z,100128.19
2022-09-03T14:26:51.672Z,100125.75
2022-09-03T14:29:19.657Z,100125.75
2022-09-03T14:32:15.256Z,100120.31
2022-09-03T14:34:52.316Z,100125.75
2022-09-03T14:37:32.032Z,100118.69
2022-09-03T14:40:06.305Z,100115.97
2022-09-03T14:42:52.611Z,100113.28
2022-09-03T14:45:29.446Z,100117.03
2022-09-03T14:48:08.585Z,100111.59
2022-09-03T14:50:55.174Z,100113.50
2022-09-03T14:53:32.979Z,100115.38
2022-09-03T14:56:14.236Z,100115.38
2022-09-03T14:58:53.467Z,100119.97
2022-09-03T15:01:29.509Z,100126.22
2022-09-03T15:04:28.756Z,100121.63
2022-09-03T15:07:16.178Z,100114.56
2022-09-03T15:09:46.498Z,100121.41
2022-09-03T15:12:20.726Z,100117.03
2022-09-03T15:14:53.995Z,100115.13
2022-09-03T15:17:33.364Z,100115.97
2022-09-03T15:20:11.795Z,100119.50
2022-09-03T15:22:50.224Z,100115.13
2022-09-03T15:25:21.815Z,100127.84
2022-09-03T15:27:58.584Z,100129.50
2022-09-03T15:30:26.549Z,100129.75
2022-09-03T15:33:02.137Z,100128.91
2022-09-03T15:35:44.677Z,100122.44
2022-09-03T15:38:13.977Z,100119.13
2022-09-03T15:40:44.101Z,100121.84
2022-09-03T15:43:19.467Z,100109.97
2022-09-03T15:45:57.570Z,100112.69
2022-09-03T15:48:32.111Z,100111.00
2022-09-03T15:51:08.173Z,100103.72
2022-09-03T15:53:37.789Z,100108.28
2022-09-03T15:56:28.976Z,100102.88
2022-09-03T15:59:01.431Z,100109.97
2022-09-03T16:01:36.475Z,100103.72
2022-09-03T16:04:10.361Z,100105.59
2022-09-03T16:06:45.790Z,100101.84
2022-09-03T16:09:21.579Z,100109.97
2022-09-03T16:11:53.740Z,100100.78
2022-09-03T16:14:26.588Z,100111.59
2022-09-03T16:16:59.060Z,100105.38
2022-09-03T16:19:29.715Z,100112.41
2022-09-03T16:22:00.272Z,100111.59
2022-09-03T16:24:32.852Z,100106.19
2022-09-03T16:27:02.421Z,100101.84
2022-09-03T16:29:31.976Z,100110.78
2022-09-03T16:32:14.129Z,100119.13
2022-09-03T16:34:46.843Z,100118.31
2022-09-03T16:37:18.979Z,100114.78
2022-09-03T16:39:52.276Z,100120.19
2022-09-03T16:42:24.930Z,100122.09
2022-09-03T16:45:00.987Z,100120.41
2022-09-03T16:47:34.247Z,100120.19
2022-09-03T16:50:09.367Z,100117.72
2022-09-03T16:52:42.604Z,100125.63
2022-09-03T16:55:18.750Z,100118.56
2022-09-03T16:57:54.992Z,100122.91
2022-09-03T17:00:24.447Z,100124.53
2022-09-03T17:03:12.415Z,100127.50
2022-09-03T17:06:05.978Z,100121.03
2022-09-03T17:08:37.546Z,100114.78
2022-09-03T17:11:13.172Z,100119.13
2022-09-03T17:13:57.869Z,100129.13
2022-09-03T17:16:33.327Z,100137.25
2022-09-03T17:19:03.813Z,100135.38
2022-09-03T17:21:38.261Z,100140.78
2022-09-03T17:24:19.633Z,100135.38
2022-09-03T17:26:55.957Z,100140.78
2022-09-03T17:29:35.227Z,100139.16
2022-09-03T17:32:10.891Z,100137.25
2022-09-03T17:34:44.737Z,100138.31
2022-09-03T17:37:18.051Z,100141.84
2022-09-03T17:40:04.289Z,100144.56
2022-09-03T17:42:34.717Z,100137.50
2022-09-03T17:45:09.679Z,100145.63
2022-09-03T17:48:06.634Z,100142.06
2022-09-03T17:50:36.652Z,100152.09
2022-09-03T17:53:07.935Z,100144.22
2022-09-03T17:55:37.427Z,100150.44
2022-09-03T17:58:10.114Z,100156.69
2022-09-03T18:00:39.879Z,100157.75
2022-09-03T18:03:12.921Z,100161.28
2022-09-03T18:05:45.199Z,100161.28
2022-09-03T18:08:15.636Z,100171.03
2022-09-03T18:10:46.300Z,100169.16
2022-09-03T18:13:18.630Z,100173.75
2022-09-03T18:15:54.361Z,100179.16
2022-09-03T18:18:27.347Z,100174.56
2022-09-03T18:21:31.745Z,100176.44
2022-09-03T18:24:19.848Z,100176.44
2022-09-03T18:27:06.561Z,100178.13
2022-09-03T18:29:54.598Z,100183.75
2022-09-03T18:32:40.067Z,100182.09
2022-09-03T18:35:27.803Z,100182.94
2022-09-03T18:38:13.030Z,100185.03
2022-09-03T18:41:01.668Z,100192.09
2022-09-03T18:43:50.013Z,100191.25
2022-09-03T18:49:44.821Z,100184.22
2022-09-03T18:52:36.296Z,100189.63
2022-09-03T18:55:26.452Z,100187.13
2022-09-03T18:58:18.154Z,100193.38
2022-09-03T19:01:06.483Z,100197.16
2022-09-03T19:03:59.566Z,100200.66
2022-09-03T19:06:48.931Z,100201.75
2022-09-03T19:09:40.032Z,100205.06
2022-09-03T19:12:31.336Z,100203.38
2022-09-03T19:15:19.149Z,100203.16
2022-09-03T19:18:24.664Z,100205.88
2022-09-03T19:21:14.207Z,100212.09
2022-09-03T19:23:59.940Z,100205.06
2022-09-03T19:26:50.482Z,100205.06
2022-09-03T19:29:39.049Z,100214.19
2022-09-03T19:32:26.730Z,100206.09
2022-09-03T19:35:23.067Z,100209.63
2022-09-03T19:38:13.504Z,100205.25
2022-09-03T19:41:08.977Z,100207.97
2022-09-03T19:43:59.875Z,100214.19
2022-09-03T19:46:49.131Z,100223.41
2022-09-03T19:49:37.603Z,100220.69
2022-09-03T19:52:25.992Z,100212.56
2022-09-03T19:55:13.026Z,100216.31
2022-09-03T19:57:58.344Z,100224.69
2022-09-03T20:00:45.470Z,100226.31
2022-09-03T20:03:31.108Z,100226.31
2022-09-03T20:06:16.714Z,100227.13
2022-09-03T20:09:02.091Z,100218.44
2022-09-03T20:11:30.230Z,100230.09
2022-09-03T20:14:16.693Z,100224.69
2022-09-03T20:17:01.735Z,100214.66
2022-09-03T20:19:33.992Z,100220.09
2022-09-03T20:22:05.413Z,100222.78
2022-09-03T20:24:40.072Z,100218.44
2022-09-03T20:27:15.279Z,100229.28
2022-09-03T20:29:54.684Z,100226.31
2022-09-03T20:32:47.053Z,100234.44
2022-09-03T20:35:17.510Z,100237.16
2022-09-03T20:37:48.322Z,100232.56
2022-09-03T20:40:20.706Z,100246.34
2022-09-03T20:43:24.586Z,100247.16
2022-09-03T20:45:59.478Z,100243.63
2022-09-03T20:48:29.499Z,100234.69
2022-09-03T20:51:01.202Z,100245.50
2022-09-03T20:53:44.534Z,100241.13
2022-09-03T20:56:16.346Z,100239.28
2022-09-03T20:58:46.537Z,100250.09
2022-09-03T21:01:17.073Z,100242.19
2022-09-03T21:03:48.993Z,100231.38
2022-09-03T21:06:23.673Z,100242.19
2022-09-03T21:09:02.114Z,100244.91
2022-09-03T21:11:37.718Z,100246.78
2022-09-03T21:14:14.700Z,100248.69
2022-09-03T21:16:47.462Z,100251.38
2022-09-03T21:19:21.060Z,100247.84
2022-09-03T21:21:53.726Z,100247.63
2022-09-03T21:24:22.817Z,100232.44
2022-09-03T21:27:00.383Z,100240.56
2022-09-03T21:29:31.319Z,100245.97
2022-09-03T21:32:03.118Z,100256.81
2022-09-03T21:34:34.564Z,100264.91
2022-09-03T21:37:02.607Z,100263.84
2022-09-03T21:39:32.883Z,100257.63
2022-09-03T21:42:04.431Z,100251.38
2022-09-03T21:44:45.236Z,100252.22
2022-09-03T21:47:14.677Z,100256.81
2022-09-03T21:49:56.062Z,100257.84
2022-09-03T21:52:25.566Z,100258.91
2022-09-03T21:54:56.773Z,100262.44
2022-09-03T21:57:29.386Z,100265.97
2022-09-03T22:00:21.879Z,100263.50
2022-09-03T22:02:50.759Z,100266.41
2022-09-03T22:05:20.207Z,100263.72
2022-09-03T22:08:04.472Z,100262.63
2022-09-03T22:10:33.761Z,100261.00
2022-09-03T22:13:09.300Z,100260.19
2022-09-03T22:15:38.118Z,100256.66
2022-09-03T22:18:07.610Z,100267.47
2022-09-03T22:20:37.041Z,100263.94
2022-09-03T22:23:07.480Z,100262.06
2022-09-03T22:25:43.456Z,100267.47
2022-09-03T22:28:13.178Z,100268.31
2022-09-03T22:30:48.478Z,100270.19
2022-09-03T22:33:19.507Z,100265.81
2022-09-03T22:36:04.791Z,100264.78
2022-09-03T22:38:42.875Z,100263.94
2022-09-03T22:41:17.296Z,100264.78
2022-09-03T22:43:47.056Z,100262.06
2022-09-03T22:46:15.428Z,100258.50
2022-09-03T22:49:12.821Z,100252.28
2022-09-03T22:51:48.609Z,100250.63
2022-09-03T22:54:23.554Z,100253.34
2022-09-03T22:56:51.590Z,100248.16
2022-09-03T22:59:23.851Z,100253.56
2022-09-03T23:01:57.369Z,100255.44
2022-09-03T23:04:29.317Z,100251.91
2022-09-03T23:07:01.087Z,100257.34
2022-09-03T23:09:31.271Z,100253.81
2022-09-03T23:12:01.327Z,100255.66
2022-09-03T23:14:30.840Z,100246.72
2022-09-03T23:16:59.996Z,100244.00
2022-09-03T23:19:30.559Z,100235.91
2022-09-03T23:22:01.479Z,100246.72
2022-09-03T23:24:30.294Z,100238.59
2022-09-03T23:26:58.333Z,100243.19
2022-09-03T23:29:29.141Z,100246.97
2022-09-03T23:31:57.669Z,100238.59
2022-09-03T23:34:25.815Z,100244.00
2022-09-03T23:37:32.299Z,100250.25
2022-09-03T23:40:02.938Z,100246.72
2022-09-03T23:42:37.874Z,100249.44
2022-09-03T23:45:15.569Z,100249.44
2022-09-03T23:47:47.671Z,100241.31
2022-09-03T23:50:25.291Z,100241.31
2022-09-03T23:53:13.525Z,100244.00
2022-09-03T23:55:48.384Z,100242.38
2022-09-03T23:58:29.909Z,100243.44
